createdAt,value
2019-01-22T00:00:50.031Z,0
2019-01-22T00:01:48.594Z,0
2019-01-22T00:02:47.127Z,0
2019-01-22T00:03:45.661Z,0
2019-01-22T00:04:44.352Z,0
2019-01-22T00:05:43.046Z,0
2019-01-22T00:06:41.572Z,0
2019-01-22T00:07:40.217Z,0
2019-01-22T00:08:38.820Z,0
2019-01-22T00:09:37.340Z,0
2019-01-22T00:10:35.946Z,0
2019-01-22T00:11:34.613Z,0
2019-01-22T00:12:33.161Z,0
2019-01-22T00:13:31.782Z,0
2019-01-22T00:14:30.318Z,0
2019-01-22T00:15:28.842Z,0
2019-01-22T00:16:27.468Z,0
2019-01-22T00:17:26.118Z,0
2019-01-22T00:18:24.970Z,0
2019-01-22T00:19:23.524Z,0
2019-01-22T00:20:22.076Z,0
2019-01-22T00:21:20.822Z,0
2019-01-22T00:22:19.347Z,0
2019-01-22T00:23:18.180Z,0
2019-01-22T00:24:16.869Z,0
2019-01-22T00:25:15.401Z,0
2019-01-22T00:26:13.970Z,0
2019-01-22T00:27:12.592Z,0
2019-01-22T00:28:11.133Z,0
2019-01-22T00:29:09.676Z,0
2019-01-22T00:30:08.387Z,0
2019-01-22T00:31:06.994Z,0
2019-01-22T00:32:05.813Z,0
2019-01-22T00:33:04.562Z,0
2019-01-22T00:34:03.092Z,0
2019-01-22T00:35:01.645Z,0
2019-01-22T00:36:00.255Z,0
2019-01-22T00:36:58.926Z,0
2019-01-22T00:37:57.459Z,0
2019-01-22T00:38:56.017Z,0
2019-01-22T00:39:54.623Z,0
2019-01-22T00:40:53.137Z,0
2019-01-22T00:41:51.767Z,0
2019-01-22T00:42:50.369Z,0
2019-01-22T00:43:49.175Z,0
2019-01-22T00:44:47.704Z,0
2019-01-22T00:45:46.389Z,0
2019-01-22T00:46:45.033Z,0
2019-01-22T00:47:43.594Z,0
2019-01-22T00:48:42.244Z,0
2019-01-22T00:49:40.772Z,0
2019-01-22T00:50:39.323Z,0
2019-01-22T00:51:37.852Z,0
2019-01-22T00:52:36.395Z,0
2019-01-22T00:55:20.638Z,0
2019-01-22T00:56:19.220Z,0
2019-01-22T00:57:17.770Z,0
2019-01-22T00:58:16.680Z,0
2019-01-22T00:59:15.216Z,0
2019-01-22T01:00:13.783Z,0
2019-01-22T01:01:12.347Z,0
2019-01-22T01:02:10.944Z,0
2019-01-22T01:03:09.538Z,0
2019-01-22T01:04:08.412Z,0
2019-01-22T01:05:07.092Z,0
2019-01-22T01:06:05.680Z,0
2019-01-22T01:07:04.252Z,0
2019-01-22T01:08:02.854Z,0
2019-01-22T01:09:01.443Z,0
2019-01-22T01:10:00.013Z,0
2019-01-22T01:10:58.540Z,0
2019-01-22T01:11:57.092Z,0
2019-01-22T01:12:55.600Z,0
2019-01-22T01:13:54.382Z,0
2019-01-22T01:14:52.947Z,0
2019-01-22T01:15:51.562Z,0
2019-01-22T01:16:50.178Z,0
2019-01-22T01:17:49.021Z,0
2019-01-22T01:18:47.569Z,0
2019-01-22T01:19:46.106Z,0
2019-01-22T01:20:44.635Z,0
2019-01-22T01:21:43.178Z,0
2019-01-22T01:22:41.797Z,0
2019-01-22T01:23:40.548Z,0
2019-01-22T01:24:39.176Z,0
2019-01-22T01:25:37.809Z,0
2019-01-22T01:26:36.505Z,0
2019-01-22T01:27:35.097Z,0
2019-01-22T01:28:33.654Z,0
2019-01-22T01:29:32.227Z,0
2019-01-22T01:30:30.837Z,0
2019-01-22T01:31:29.383Z,0
2019-01-22T01:32:28.631Z,0
2019-01-22T01:33:27.167Z,0
2019-01-22T01:34:25.699Z,0
2019-01-22T01:35:24.281Z,0
2019-01-22T01:36:22.833Z,0
2019-01-22T01:37:21.346Z,0
2019-01-22T01:38:19.860Z,0
2019-01-22T01:39:18.413Z,0
2019-01-22T01:40:16.950Z,0
2019-01-22T01:41:15.486Z,0
2019-01-22T01:42:14.163Z,0
2019-01-22T01:43:12.924Z,0
2019-01-22T01:44:11.469Z,0
2019-01-22T01:45:10.170Z,0
2019-01-22T01:46:08.945Z,0
2019-01-22T01:47:07.477Z,0
2019-01-22T01:48:06.012Z,0
2019-01-22T01:49:04.574Z,0
2019-01-22T01:50:03.090Z,0
2019-01-22T01:51:01.634Z,0
2019-01-22T01:52:00.185Z,0
2019-01-22T01:52:58.761Z,0
2019-01-22T01:53:57.335Z,0
2019-01-22T01:54:55.955Z,0
2019-01-22T01:55:55.343Z,0
2019-01-22T01:56:54.013Z,0
2019-01-22T01:57:52.887Z,0
2019-01-22T01:58:51.431Z,0
2019-01-22T01:59:50.042Z,0
2019-01-22T02:00:48.701Z,0
2019-01-22T02:01:47.275Z,0
2019-01-22T02:04:27.648Z,0
2019-01-22T02:05:26.347Z,0
2019-01-22T02:06:25.181Z,0
2019-01-22T02:07:23.723Z,0
2019-01-22T02:08:22.301Z,0
2019-01-22T02:09:21.477Z,0
2019-01-22T02:10:19.386Z,0
2019-01-22T02:11:18.049Z,0
2019-01-22T02:12:16.845Z,0
2019-01-22T02:13:15.719Z,0
2019-01-22T02:14:14.256Z,0
2019-01-22T02:15:12.814Z,0
2019-01-22T02:16:11.392Z,0
2019-01-22T02:17:09.908Z,0
2019-01-22T02:18:08.463Z,0
2019-01-22T02:19:06.987Z,0
2019-01-22T02:20:05.515Z,0
2019-01-22T02:21:04.156Z,0
2019-01-22T02:22:02.801Z,0
2019-01-22T02:23:01.348Z,0
2019-01-22T02:23:59.883Z,0
2019-01-22T02:24:58.709Z,0
2019-01-22T02:25:57.285Z,0
2019-01-22T02:26:55.839Z,0
2019-01-22T02:27:54.452Z,0
2019-01-22T02:28:53.039Z,0
2019-01-22T02:29:51.621Z,0
2019-01-22T02:30:50.144Z,0
2019-01-22T02:31:48.674Z,0
2019-01-22T02:32:47.224Z,0
2019-01-22T02:33:45.748Z,0
2019-01-22T02:34:44.280Z,0
2019-01-22T02:35:42.807Z,0
2019-01-22T02:36:41.341Z,0
2019-01-22T02:37:40.034Z,0
2019-01-22T02:38:38.876Z,0
2019-01-22T02:39:37.403Z,0
2019-01-22T02:40:35.992Z,0
2019-01-22T02:41:34.748Z,0
2019-01-22T02:42:33.295Z,0
2019-01-22T02:43:31.826Z,0
2019-01-22T02:44:30.362Z,0
2019-01-22T02:45:28.926Z,0
2019-01-22T02:46:27.449Z,0
2019-01-22T02:47:25.970Z,0
2019-01-22T02:48:24.512Z,0
2019-01-22T02:49:23.762Z,0
2019-01-22T02:50:22.462Z,0
2019-01-22T02:51:21.009Z,0
2019-01-22T02:52:19.533Z,0
2019-01-22T02:53:18.110Z,0
2019-01-22T02:54:16.647Z,0
2019-01-22T02:55:15.183Z,0
2019-01-22T02:56:13.724Z,0
2019-01-22T02:57:12.324Z,0
2019-01-22T02:58:10.973Z,0
2019-01-22T03:00:51.415Z,0
2019-01-22T03:01:49.948Z,0
2019-01-22T03:02:48.594Z,0
2019-01-22T03:03:47.131Z,0
2019-01-22T03:04:45.745Z,0
2019-01-22T03:05:44.278Z,0
2019-01-22T03:06:42.995Z,0
2019-01-22T03:07:41.546Z,0
2019-01-22T03:08:40.096Z,0
2019-01-22T03:09:38.899Z,0
2019-01-22T03:10:37.430Z,0
2019-01-22T03:11:35.980Z,0
2019-01-22T03:12:34.737Z,0
2019-01-22T03:13:33.267Z,0
2019-01-22T03:14:31.841Z,0
2019-01-22T03:15:30.384Z,0
2019-01-22T03:16:29.709Z,0
2019-01-22T03:17:28.241Z,0
2019-01-22T03:18:26.889Z,0
2019-01-22T03:19:25.445Z,0
2019-01-22T03:20:23.986Z,0
2019-01-22T03:21:22.588Z,0
2019-01-22T03:22:21.145Z,0
2019-01-22T03:23:19.886Z,0
2019-01-22T03:24:18.576Z,0
2019-01-22T03:25:17.266Z,0
2019-01-22T03:26:15.808Z,0
2019-01-22T03:27:14.441Z,0
2019-01-22T03:28:12.976Z,0
2019-01-22T03:29:11.742Z,0
2019-01-22T03:30:10.366Z,0
2019-01-22T03:31:09.037Z,0
2019-01-22T03:32:07.625Z,0
2019-01-22T03:33:06.225Z,0
2019-01-22T03:34:04.994Z,0
2019-01-22T03:35:03.534Z,0
2019-01-22T03:36:02.076Z,0
2019-01-22T03:37:00.619Z,0
2019-01-22T03:37:59.193Z,0
2019-01-22T03:38:57.772Z,0
2019-01-22T03:39:56.646Z,0
2019-01-22T03:40:55.228Z,0
2019-01-22T03:41:53.751Z,0
2019-01-22T03:42:52.435Z,0
2019-01-22T03:43:51.178Z,0
2019-01-22T03:44:49.737Z,0
2019-01-22T03:45:48.286Z,0
2019-01-22T03:46:46.846Z,0
2019-01-22T03:47:45.394Z,0
2019-01-22T03:48:43.920Z,0
2019-01-22T03:49:42.437Z,0
2019-01-22T03:50:41.192Z,0
2019-01-22T03:51:39.747Z,0
2019-01-22T03:52:38.326Z,0
2019-01-22T03:53:37.073Z,0
2019-01-22T03:54:35.627Z,0
2019-01-22T03:55:34.298Z,0
2019-01-22T03:56:32.955Z,0
2019-01-22T03:57:32.482Z,0
2019-01-22T03:58:30.057Z,0
2019-01-22T03:59:28.598Z,0
2019-01-22T04:00:27.129Z,0
2019-01-22T04:01:25.685Z,0
2019-01-22T04:02:24.383Z,0
2019-01-22T04:03:23.080Z,0
2019-01-22T04:04:21.618Z,0
2019-01-22T04:05:20.239Z,0
2019-01-22T04:06:19.003Z,0
2019-01-22T04:07:17.551Z,0
2019-01-22T04:08:16.082Z,0
2019-01-22T04:09:15.483Z,0
2019-01-22T04:10:13.183Z,0
2019-01-22T04:11:11.736Z,0
2019-01-22T04:12:10.280Z,0
2019-01-22T04:13:08.827Z,0
2019-01-22T04:14:07.357Z,0
2019-01-22T04:15:06.055Z,0
2019-01-22T04:16:04.697Z,0
2019-01-22T04:17:03.308Z,0
2019-01-22T04:18:01.889Z,0
2019-01-22T04:19:00.477Z,0
2019-01-22T04:19:59.194Z,0
2019-01-22T04:20:57.771Z,0
2019-01-22T04:21:56.330Z,0
2019-01-22T04:22:54.955Z,0
2019-01-22T04:23:53.469Z,0
2019-01-22T04:24:52.030Z,0
2019-01-22T04:25:50.572Z,0
2019-01-22T04:26:49.118Z,0
2019-01-22T04:27:47.641Z,0
2019-01-22T04:28:46.358Z,0
2019-01-22T04:29:45.144Z,0
2019-01-22T04:30:43.693Z,0
2019-01-22T04:31:42.228Z,0
2019-01-22T04:32:41.019Z,0
2019-01-22T04:33:39.620Z,0
2019-01-22T04:34:38.173Z,0
2019-01-22T04:35:36.766Z,0
2019-01-22T04:36:35.305Z,0
2019-01-22T04:37:33.839Z,0
2019-01-22T04:38:32.527Z,0
2019-01-22T04:39:31.215Z,0
2019-01-22T04:40:29.751Z,0
2019-01-22T04:41:28.357Z,0
2019-01-22T04:42:26.921Z,0
2019-01-22T04:43:25.459Z,0
2019-01-22T04:44:23.979Z,0
2019-01-22T04:45:22.554Z,0
2019-01-22T04:46:21.232Z,0
2019-01-22T04:47:19.774Z,0
2019-01-22T04:48:18.416Z,0
2019-01-22T04:49:16.940Z,0
2019-01-22T04:50:15.484Z,0
2019-01-22T04:51:14.146Z,0
2019-01-22T04:52:12.763Z,0
2019-01-22T04:53:11.389Z,0
2019-01-22T04:54:10.228Z,0
2019-01-22T04:55:08.617Z,0
2019-01-22T04:56:07.357Z,0
2019-01-22T04:57:05.843Z,0
2019-01-22T04:58:04.423Z,0
2019-01-22T04:59:03.212Z,0
2019-01-22T05:00:01.767Z,0
2019-01-22T05:01:00.588Z,0
2019-01-22T05:01:59.156Z,0
2019-01-22T05:02:57.682Z,0
2019-01-22T05:03:56.228Z,0
2019-01-22T05:04:55.325Z,0
2019-01-22T05:05:53.864Z,0
2019-01-22T05:06:52.511Z,0
2019-01-22T05:07:51.139Z,0
2019-01-22T05:08:49.674Z,0
2019-01-22T05:09:48.326Z,0
2019-01-22T05:10:47.112Z,0
2019-01-22T05:11:45.646Z,0
2019-01-22T05:12:44.204Z,0
2019-01-22T05:13:42.730Z,0
2019-01-22T05:14:41.251Z,0
2019-01-22T05:15:39.802Z,0
2019-01-22T05:16:38.390Z,0
2019-01-22T05:17:36.955Z,0
2019-01-22T05:18:35.501Z,0
2019-01-22T05:19:34.112Z,0
2019-01-22T05:20:32.726Z,0
2019-01-22T05:21:31.372Z,0
2019-01-22T05:22:29.891Z,0
2019-01-22T05:23:28.531Z,0
2019-01-22T05:24:27.129Z,0
2019-01-22T05:25:25.668Z,0
2019-01-22T05:26:24.332Z,0
2019-01-22T05:27:22.955Z,0
2019-01-22T05:28:21.572Z,0
2019-01-22T05:29:20.110Z,0
2019-01-22T05:30:18.747Z,0
2019-01-22T05:31:17.275Z,0
2019-01-22T05:32:15.826Z,0
2019-01-22T05:33:14.711Z,0
2019-01-22T05:34:13.244Z,0
2019-01-22T05:35:12.576Z,0
2019-01-22T05:36:11.165Z,0
2019-01-22T05:37:09.730Z,0
2019-01-22T05:38:08.250Z,0
2019-01-22T05:39:07.051Z,0
2019-01-22T05:40:05.581Z,0
2019-01-22T05:41:04.139Z,0
2019-01-22T05:42:03.007Z,0
2019-01-22T05:43:01.550Z,0
2019-01-22T05:44:00.091Z,0
2019-01-22T05:44:59.499Z,0
2019-01-22T05:45:58.069Z,0
2019-01-22T05:46:56.859Z,0
2019-01-22T05:47:55.701Z,0
2019-01-22T05:48:54.241Z,0
2019-01-22T05:49:52.785Z,0
2019-01-22T05:50:51.339Z,0
2019-01-22T05:51:49.882Z,0
2019-01-22T05:52:48.417Z,0
2019-01-22T05:53:46.963Z,0
2019-01-22T05:54:45.535Z,0
2019-01-22T05:55:44.217Z,0
2019-01-22T05:56:43.039Z,0
2019-01-22T05:57:41.619Z,0
2019-01-22T05:58:40.219Z,0
2019-01-22T05:59:38.785Z,0
2019-01-22T06:00:37.380Z,0
2019-01-22T06:01:36.496Z,0
2019-01-22T06:02:34.507Z,0
2019-01-22T06:03:33.042Z,0
2019-01-22T06:04:31.600Z,0
2019-01-22T06:05:30.149Z,0
2019-01-22T06:06:28.802Z,0
2019-01-22T06:07:27.351Z,0
2019-01-22T06:08:26.071Z,0
2019-01-22T06:09:24.740Z,0
2019-01-22T06:10:23.432Z,0
2019-01-22T06:11:21.966Z,0
2019-01-22T06:12:20.673Z,0
2019-01-22T06:13:19.243Z,0
2019-01-22T06:14:17.783Z,0
2019-01-22T06:15:16.579Z,0
2019-01-22T06:16:15.253Z,0
2019-01-22T06:17:13.836Z,0
2019-01-22T06:18:12.479Z,0
2019-01-22T06:19:11.227Z,0
2019-01-22T06:20:09.759Z,0
2019-01-22T06:21:08.339Z,0
2019-01-22T06:22:06.863Z,0
2019-01-22T06:23:05.527Z,0
2019-01-22T06:24:04.121Z,0
2019-01-22T06:25:02.928Z,0
2019-01-22T06:26:01.455Z,0
2019-01-22T06:27:00.010Z,0
2019-01-22T06:27:58.894Z,0
2019-01-22T06:28:57.513Z,0
2019-01-22T06:29:56.201Z,0
2019-01-22T06:30:54.910Z,0
2019-01-22T06:31:53.486Z,0
2019-01-22T06:32:52.035Z,0
2019-01-22T06:33:50.666Z,0
2019-01-22T06:34:49.319Z,0
2019-01-22T06:35:47.871Z,0
2019-01-22T06:36:46.651Z,0
2019-01-22T06:37:45.302Z,0
2019-01-22T06:38:43.921Z,0
2019-01-22T06:39:42.604Z,0
2019-01-22T06:40:41.261Z,0
2019-01-22T06:41:40.744Z,0
2019-01-22T06:42:39.472Z,0
2019-01-22T06:43:38.037Z,0
2019-01-22T06:44:36.638Z,0
2019-01-22T06:45:35.235Z,0
2019-01-22T06:46:33.837Z,0
2019-01-22T06:47:32.289Z,0
2019-01-22T06:48:31.028Z,0
2019-01-22T06:49:29.600Z,0
2019-01-22T06:50:28.253Z,0
2019-01-22T06:51:26.904Z,0
2019-01-22T06:52:25.570Z,0
2019-01-22T06:53:24.200Z,0
2019-01-22T06:54:22.829Z,0
2019-01-22T06:55:21.383Z,0
2019-01-22T06:56:19.989Z,0
2019-01-22T06:57:18.704Z,0
2019-01-22T06:58:17.351Z,0
2019-01-22T06:59:15.883Z,0
2019-01-22T07:00:14.543Z,0
2019-01-22T07:01:13.369Z,0
2019-01-22T07:02:11.934Z,0
2019-01-22T07:03:10.710Z,0
2019-01-22T07:04:09.500Z,0
2019-01-22T07:05:08.049Z,0
2019-01-22T07:06:06.678Z,0
2019-01-22T07:07:05.373Z,0
2019-01-22T07:08:03.921Z,0
2019-01-22T07:09:02.494Z,0
2019-01-22T07:10:01.033Z,5
2019-01-22T07:10:59.565Z,5
2019-01-22T07:11:58.125Z,5
2019-01-22T07:12:56.645Z,5
2019-01-22T07:13:55.204Z,5
2019-01-22T07:14:53.765Z,5
2019-01-22T07:15:52.402Z,5
2019-01-22T07:16:51.054Z,5
2019-01-22T07:17:49.850Z,10
2019-01-22T07:18:48.560Z,5
2019-01-22T07:19:47.155Z,10
2019-01-22T07:20:45.704Z,10
2019-01-22T07:21:44.219Z,10
2019-01-22T07:22:42.751Z,10
2019-01-22T07:23:41.310Z,10
2019-01-22T07:24:46.578Z,15
2019-01-22T07:25:38.400Z,15
2019-01-22T07:26:37.119Z,15
2019-01-22T07:27:35.687Z,15
2019-01-22T07:28:34.259Z,15
2019-01-22T07:29:33.037Z,20
2019-01-22T07:30:31.693Z,20
2019-01-22T07:31:30.242Z,20
2019-01-22T07:32:28.905Z,20
2019-01-22T07:33:27.447Z,20
2019-01-22T07:34:25.992Z,20
2019-01-22T07:35:24.595Z,20
2019-01-22T07:36:23.141Z,25
2019-01-22T07:37:21.675Z,25
2019-01-22T07:38:20.380Z,25
2019-01-22T07:39:19.180Z,25
2019-01-22T07:40:17.723Z,30
2019-01-22T07:41:16.570Z,30
2019-01-22T07:42:15.093Z,30
2019-01-22T07:43:13.622Z,30
2019-01-22T07:44:12.183Z,30
2019-01-22T07:45:10.722Z,35
2019-01-22T07:46:09.379Z,35
2019-01-22T07:47:08.024Z,35
2019-01-22T07:48:06.891Z,35
2019-01-22T07:49:05.595Z,35
2019-01-22T07:50:04.141Z,40
2019-01-22T07:51:02.698Z,40
2019-01-22T07:52:01.343Z,40
2019-01-22T07:52:59.947Z,40
2019-01-22T07:53:58.641Z,35
2019-01-22T07:54:57.330Z,35
2019-01-22T07:55:55.886Z,40
2019-01-22T07:56:54.458Z,40
2019-01-22T07:57:53.247Z,45
2019-01-22T07:58:52.423Z,40
2019-01-22T07:59:51.295Z,40
2019-01-22T08:00:49.885Z,40
2019-01-22T08:01:48.434Z,40
2019-01-22T08:02:46.974Z,45
2019-01-22T08:03:45.563Z,45
2019-01-22T08:04:44.189Z,45
2019-01-22T08:05:43.063Z,45
2019-01-22T08:06:41.688Z,45
2019-01-22T08:07:40.242Z,45
2019-01-22T08:08:39.523Z,45
2019-01-22T08:09:38.063Z,45
2019-01-22T08:10:36.913Z,45
2019-01-22T08:11:35.465Z,45
2019-01-22T08:12:34.035Z,50
2019-01-22T08:13:32.597Z,50
2019-01-22T08:14:31.126Z,50
2019-01-22T08:15:29.645Z,50
2019-01-22T08:16:29.386Z,50
2019-01-22T08:17:26.968Z,50
2019-01-22T08:18:25.497Z,50
2019-01-22T08:19:24.038Z,50
2019-01-22T08:20:22.831Z,50
2019-01-22T08:21:21.473Z,50
2019-01-22T08:22:20.043Z,50
2019-01-22T08:23:18.695Z,50
2019-01-22T08:24:17.225Z,55
2019-01-22T08:25:15.785Z,55
2019-01-22T08:26:14.314Z,55
2019-01-22T08:27:12.870Z,55
2019-01-22T08:28:11.400Z,55
2019-01-22T08:29:09.945Z,55
2019-01-22T08:30:08.557Z,55
2019-01-22T08:31:07.194Z,55
2019-01-22T08:32:05.718Z,55
2019-01-22T08:35:21.363Z,55
2019-01-22T08:36:19.895Z,55
2019-01-22T08:37:18.444Z,55
2019-01-22T08:38:16.968Z,55
2019-01-22T08:39:15.542Z,55
2019-01-22T08:40:14.046Z,60
2019-01-22T08:41:12.579Z,60
2019-01-22T08:42:11.120Z,65
2019-01-22T08:43:09.664Z,65
2019-01-22T08:44:08.317Z,65
2019-01-22T08:45:07.117Z,65
2019-01-22T08:46:05.655Z,65
2019-01-22T08:47:04.175Z,65
2019-01-22T08:48:02.880Z,65
2019-01-22T08:49:01.447Z,65
2019-01-22T08:49:59.992Z,65
2019-01-22T08:50:58.617Z,70
2019-01-22T08:51:57.296Z,70
2019-01-22T08:52:55.822Z,70
2019-01-22T08:53:54.435Z,70
2019-01-22T08:54:53.069Z,65
2019-01-22T08:55:51.632Z,65
2019-01-22T08:56:50.167Z,65
2019-01-22T08:57:48.929Z,60
2019-01-22T08:58:47.546Z,60
2019-01-22T08:59:46.118Z,60
2019-01-22T09:00:44.781Z,60
2019-01-22T09:01:43.312Z,60
2019-01-22T09:02:41.860Z,60
2019-01-22T09:03:40.404Z,60
2019-01-22T09:04:39.098Z,65
2019-01-22T09:05:37.716Z,65
2019-01-22T09:06:36.281Z,60
2019-01-22T09:07:35.061Z,60
2019-01-22T09:08:33.640Z,55
2019-01-22T09:09:32.168Z,55
2019-01-22T09:10:30.900Z,55
2019-01-22T09:11:29.480Z,55
2019-01-22T09:12:28.007Z,55
2019-01-22T09:13:26.595Z,55
2019-01-22T09:14:25.262Z,55
2019-01-22T09:15:23.828Z,55
2019-01-22T09:16:22.369Z,60
2019-01-22T09:17:21.246Z,55
2019-01-22T09:18:19.850Z,55
2019-01-22T09:19:18.536Z,55
2019-01-22T09:20:17.153Z,55
2019-01-22T09:21:15.722Z,55
2019-01-22T09:22:14.424Z,55
2019-01-22T09:23:13.119Z,55
2019-01-22T09:24:11.669Z,55
2019-01-22T09:25:14.665Z,55
2019-01-22T09:26:08.866Z,50
2019-01-22T09:27:08.453Z,50
2019-01-22T09:28:07.212Z,55
2019-01-22T09:29:05.749Z,55
2019-01-22T09:30:04.319Z,55
2019-01-22T09:31:02.865Z,55
2019-01-22T09:32:01.429Z,50
2019-01-22T09:33:00.052Z,50
2019-01-22T09:33:58.699Z,50
2019-01-22T09:34:57.402Z,50
2019-01-22T09:35:56.043Z,50
2019-01-22T09:36:54.836Z,45
2019-01-22T09:37:53.416Z,45
2019-01-22T09:38:51.932Z,45
2019-01-22T09:39:50.511Z,45
2019-01-22T09:40:49.048Z,45
2019-01-22T09:41:47.601Z,45
2019-01-22T09:42:46.344Z,45
2019-01-22T09:43:45.096Z,50
2019-01-22T09:44:43.672Z,50
2019-01-22T09:45:42.196Z,50
2019-01-22T09:46:41.025Z,50
2019-01-22T09:47:39.568Z,55
2019-01-22T09:48:38.085Z,55
2019-01-22T09:49:36.690Z,55
2019-01-22T09:50:35.241Z,55
2019-01-22T09:51:33.763Z,50
2019-01-22T09:52:32.506Z,50
2019-01-22T09:53:32.137Z,50
2019-01-22T09:54:30.856Z,50
2019-01-22T09:55:30.448Z,50
2019-01-22T09:56:27.992Z,50
2019-01-22T09:57:26.659Z,50
2019-01-22T09:58:25.224Z,45
2019-01-22T09:59:23.856Z,45
2019-01-22T10:00:22.379Z,50
2019-01-22T10:01:21.171Z,50
2019-01-22T10:02:19.791Z,50
2019-01-22T10:03:18.438Z,50
2019-01-22T10:04:17.301Z,50
2019-01-22T10:05:15.806Z,45
2019-01-22T10:06:14.349Z,45
2019-01-22T10:07:12.904Z,45
2019-01-22T10:08:11.436Z,50
2019-01-22T10:09:09.987Z,50
2019-01-22T10:10:08.515Z,50
2019-01-22T10:11:07.027Z,50
2019-01-22T10:12:05.558Z,50
2019-01-22T10:13:04.168Z,50
2019-01-22T10:14:02.824Z,50
2019-01-22T10:15:01.469Z,50
2019-01-22T10:16:00.006Z,50
2019-01-22T10:16:58.584Z,55
2019-01-22T10:17:57.222Z,55
2019-01-22T10:18:55.771Z,55
2019-01-22T10:19:54.412Z,55
2019-01-22T10:20:53.048Z,55
2019-01-22T10:21:51.591Z,55
2019-01-22T10:22:50.107Z,55
2019-01-22T10:23:48.668Z,55
2019-01-22T10:24:47.326Z,55
2019-01-22T10:27:27.559Z,55
2019-01-22T10:30:07.983Z,60
2019-01-22T10:31:06.534Z,60
2019-01-22T10:32:05.067Z,55
2019-01-22T10:33:03.584Z,60
2019-01-22T10:34:02.138Z,60
2019-01-22T10:35:00.680Z,60
2019-01-22T10:35:59.207Z,60
2019-01-22T10:36:57.787Z,60
2019-01-22T10:37:56.385Z,65
2019-01-22T10:38:55.563Z,65
2019-01-22T10:39:54.089Z,65
2019-01-22T10:40:52.769Z,70
2019-01-22T10:41:51.285Z,70
2019-01-22T10:42:49.800Z,70
2019-01-22T10:43:48.347Z,70
2019-01-22T10:44:46.899Z,75
2019-01-22T10:45:45.459Z,75
2019-01-22T10:46:43.995Z,75
2019-01-22T10:47:42.633Z,75
2019-01-22T10:48:41.314Z,75
2019-01-22T10:51:21.422Z,75
2019-01-22T10:52:19.950Z,75
2019-01-22T10:53:18.522Z,80
2019-01-22T10:54:17.268Z,80
2019-01-22T10:55:16.051Z,80
2019-01-22T10:58:54.677Z,85
2019-01-22T10:59:53.325Z,85
2019-01-22T11:00:51.866Z,85
2019-01-22T11:01:50.547Z,85
2019-01-22T11:02:49.310Z,85
2019-01-22T11:03:47.968Z,85
2019-01-22T11:04:46.380Z,85
2019-01-22T11:05:44.944Z,85
2019-01-22T11:27:31.351Z,80
2019-01-22T11:28:29.873Z,80
2019-01-22T11:29:28.509Z,80
2019-01-22T11:30:27.299Z,80
2019-01-22T11:31:25.845Z,80
2019-01-22T11:32:24.378Z,75
2019-01-22T11:33:22.940Z,75
2019-01-22T11:34:21.461Z,75
2019-01-22T11:35:20.009Z,75
2019-01-22T11:36:18.728Z,80
2019-01-22T11:37:17.275Z,80
2019-01-22T11:38:15.864Z,80
2019-01-22T11:39:14.471Z,80
2019-01-22T11:40:13.227Z,80
2019-01-22T11:41:11.749Z,80
2019-01-22T11:42:10.281Z,80
2019-01-22T11:43:09.178Z,80
2019-01-22T11:44:07.721Z,80
2019-01-22T11:45:06.473Z,80
2019-01-22T11:46:05.283Z,80
2019-01-22T11:47:03.860Z,80
2019-01-22T11:48:02.401Z,75
2019-01-22T11:49:01.123Z,75
2019-01-22T11:49:59.669Z,80
2019-01-22T11:50:58.230Z,80
2019-01-22T11:51:56.752Z,80
2019-01-22T11:52:55.275Z,75
2019-01-22T11:53:53.822Z,75
2019-01-22T11:54:52.376Z,75
2019-01-22T11:55:50.907Z,80
2019-01-22T11:56:49.436Z,80
2019-01-22T11:57:47.987Z,80
2019-01-22T11:58:46.722Z,80
2019-01-22T11:59:45.969Z,80
2019-01-22T12:00:43.964Z,80
2019-01-22T12:01:42.572Z,75
2019-01-22T12:02:41.370Z,75
2019-01-22T12:03:39.926Z,75
2019-01-22T12:04:38.520Z,75
2019-01-22T12:05:37.183Z,75
2019-01-22T12:06:35.707Z,75
2019-01-22T12:07:34.332Z,75
2019-01-22T12:08:33.123Z,80
2019-01-22T12:09:31.649Z,80
2019-01-22T12:10:30.329Z,80
2019-01-22T12:11:28.992Z,80
2019-01-22T12:12:27.579Z,80
2019-01-22T12:13:26.094Z,80
2019-01-22T12:14:24.666Z,80
2019-01-22T12:15:23.193Z,80
2019-01-22T12:16:21.700Z,80
2019-01-22T12:17:20.252Z,80
2019-01-22T12:18:19.810Z,80
2019-01-22T12:19:18.495Z,80
2019-01-22T12:20:17.327Z,80
2019-01-22T12:21:15.834Z,80
2019-01-22T12:22:14.373Z,80
2019-01-22T12:23:13.177Z,80
2019-01-22T12:24:11.730Z,80
2019-01-22T12:25:10.275Z,80
2019-01-22T12:26:08.821Z,80
2019-01-22T12:27:07.373Z,80
2019-01-22T12:28:05.938Z,80
2019-01-22T12:29:04.685Z,80
2019-01-22T12:30:03.399Z,85
2019-01-22T12:31:01.930Z,85
2019-01-22T12:32:00.563Z,85
2019-01-22T12:32:59.335Z,85
2019-01-22T12:33:57.865Z,85
2019-01-22T12:34:56.523Z,80
2019-01-22T12:35:55.060Z,85
2019-01-22T12:36:53.643Z,80
2019-01-22T12:37:52.239Z,80
2019-01-22T12:38:50.859Z,85
2019-01-22T12:39:49.494Z,85
2019-01-22T12:40:48.029Z,85
2019-01-22T12:41:46.580Z,85
2019-01-22T12:42:45.211Z,85
2019-01-22T12:43:43.756Z,85
2019-01-22T12:44:42.305Z,85
2019-01-22T12:45:41.260Z,85
2019-01-22T12:46:39.797Z,80
2019-01-22T12:47:38.466Z,80
2019-01-22T12:48:37.291Z,80
2019-01-22T12:49:35.874Z,80
2019-01-22T12:50:34.640Z,80
2019-01-22T12:51:33.283Z,80
2019-01-22T12:52:31.840Z,85
2019-01-22T12:53:30.587Z,85
2019-01-22T12:54:29.314Z,80
2019-01-22T12:55:27.849Z,85
2019-01-22T12:56:26.428Z,85
2019-01-22T12:57:25.236Z,85
2019-01-22T12:58:23.751Z,90
2019-01-22T12:59:22.391Z,90
2019-01-22T13:00:20.919Z,90
2019-01-22T13:01:19.530Z,90
2019-01-22T13:02:18.058Z,90
2019-01-22T13:03:16.692Z,90
2019-01-22T13:04:15.383Z,90
2019-01-22T13:05:13.925Z,85
2019-01-22T13:06:12.678Z,85
2019-01-22T13:07:11.459Z,85
2019-01-22T13:08:09.990Z,85
2019-01-22T13:09:08.498Z,85
2019-01-22T13:11:33.417Z,85
2019-01-22T13:12:31.961Z,85
2019-01-22T13:13:30.532Z,85
2019-01-22T13:14:29.281Z,80
2019-01-22T13:15:27.811Z,80
2019-01-22T13:16:26.357Z,80
2019-01-22T13:17:24.889Z,80
2019-01-22T13:18:23.546Z,80
2019-01-22T13:19:21.995Z,75
2019-01-22T13:30:14.306Z,70
2019-01-22T13:31:12.925Z,65
2019-01-22T13:32:11.484Z,65
2019-01-22T13:33:10.006Z,65
2019-01-22T13:34:08.537Z,65
2019-01-22T13:35:07.119Z,65
2019-01-22T13:36:05.686Z,65
2019-01-22T13:37:04.402Z,65
2019-01-22T13:38:03.216Z,65
2019-01-22T13:39:01.773Z,65
2019-01-22T13:40:00.320Z,65
2019-01-22T13:40:59.014Z,65
2019-01-22T13:41:57.583Z,70
2019-01-22T13:42:56.118Z,65
2019-01-22T13:43:54.671Z,65
2019-01-22T13:44:53.191Z,65
2019-01-22T13:45:51.729Z,65
2019-01-22T13:46:50.259Z,65
2019-01-22T13:47:48.807Z,65
2019-01-22T13:48:47.338Z,65
2019-01-22T13:49:46.054Z,65
2019-01-22T13:50:44.928Z,60
2019-01-22T13:51:43.577Z,60
2019-01-22T13:52:42.125Z,60
2019-01-22T13:53:40.814Z,60
2019-01-22T13:54:39.349Z,60
2019-01-22T13:55:37.921Z,60
2019-01-22T13:56:36.596Z,55
2019-01-22T13:57:35.289Z,55
2019-01-22T13:58:33.840Z,55
2019-01-22T13:59:32.573Z,55
2019-01-22T14:00:31.379Z,55
2019-01-22T14:01:29.933Z,55
2019-01-22T14:02:28.444Z,55
2019-01-22T14:03:27.002Z,55
2019-01-22T14:04:25.560Z,55
2019-01-22T14:05:24.083Z,55
2019-01-22T14:06:22.613Z,55
2019-01-22T14:07:21.148Z,55
2019-01-22T14:08:19.680Z,55
2019-01-22T14:09:18.432Z,55
2019-01-22T14:10:17.208Z,55
2019-01-22T14:11:15.775Z,55
2019-01-22T14:12:14.364Z,55
2019-01-22T14:13:13.102Z,55
2019-01-22T14:14:11.640Z,55
2019-01-22T14:15:10.218Z,55
2019-01-22T14:16:08.728Z,55
2019-01-22T14:17:07.283Z,55
2019-01-22T14:19:47.730Z,50
2019-01-22T14:20:46.281Z,50
2019-01-22T14:21:44.921Z,50
2019-01-22T14:22:43.506Z,50
2019-01-22T14:23:42.026Z,45
2019-01-22T14:24:40.749Z,45
2019-01-22T14:25:39.298Z,45
2019-01-22T14:26:37.856Z,45
2019-01-22T14:27:36.580Z,45
2019-01-22T14:28:35.366Z,40
2019-01-22T14:29:33.908Z,40
2019-01-22T14:30:32.459Z,40
2019-01-22T14:31:32.190Z,40
2019-01-22T14:32:29.688Z,40
2019-01-22T14:33:28.268Z,40
2019-01-22T14:34:26.869Z,40
2019-01-22T14:35:25.387Z,40
2019-01-22T14:36:23.915Z,40
2019-01-22T14:37:22.492Z,40
2019-01-22T14:38:21.002Z,40
2019-01-22T14:39:19.540Z,35
2019-01-22T14:40:18.161Z,35
2019-01-22T14:41:16.918Z,35
2019-01-22T14:42:15.518Z,35
2019-01-22T14:43:14.034Z,35
2019-01-22T14:44:12.685Z,35
2019-01-22T14:46:52.959Z,35
2019-01-22T14:48:51.630Z,35
2019-01-22T14:49:50.166Z,30
2019-01-22T14:50:48.790Z,30
2019-01-22T14:51:47.501Z,30
2019-01-22T14:52:46.021Z,30
2019-01-22T14:53:44.609Z,30
2019-01-22T14:54:43.211Z,30
2019-01-22T14:55:41.794Z,30
2019-01-22T14:56:40.433Z,30
2019-01-22T14:57:39.312Z,30
2019-01-22T14:58:37.846Z,25
2019-01-22T14:59:36.484Z,25
2019-01-22T15:00:35.110Z,25
2019-01-22T15:01:33.639Z,25
2019-01-22T15:02:32.166Z,25
2019-01-22T15:03:30.736Z,25